Time;durP1;ratioP1;P1;durP2;ratioP2;P2;SDS_P1;SDS_P2;PMS_P1;PMS_P2;Temp;Humidity;BMP_temperature;BMP_pressure;BME280_temperature;BME280_humidity;BME280_pressure;Samples;Min_cycle;Max_cycle;Signal;HPM_P1;HPM_P2
2021/10/20 00:01:38;;;;;;;8.75;5.13;;;15.50;91.50;;;;;;5059136;28;20097;-75
2021/10/20 00:04:04;;;;;;;7.40;4.47;;;15.50;91.50;;;;;;5061773;28;20036;-74
2021/10/20 00:06:30;;;;;;;8.95;5.25;;;15.50;91.30;;;;;;5046490;28;20083;-75
2021/10/20 00:08:56;;;;;;;9.00;5.22;;;15.50;91.10;;;;;;5087611;28;20024;-75
2021/10/20 00:11:21;;;;;;;16.77;6.13;;;15.50;91.00;;;;;;5088362;28;20021;-75
2021/10/20 00:13:47;;;;;;;9.13;5.18;;;15.50;91.20;;;;;;5059615;28;20033;-75
2021/10/20 00:16:15;;;;;;;11.55;5.63;;;15.40;91.30;;;;;;5056027;28;20124;-75
2021/10/20 00:18:46;;;;;;;7.70;4.45;;;15.40;91.30;;;;;;5055669;28;20029;-76
2021/10/20 00:21:12;;;;;;;7.85;4.57;;;15.40;91.10;;;;;;5070564;28;20021;-75
2021/10/20 00:23:38;;;;;;;9.23;5.45;;;15.40;91.10;;;;;;5055237;28;20047;-76
2021/10/20 00:26:03;;;;;;;8.05;4.88;;;15.40;91.10;;;;;;5070182;28;20171;-76
2021/10/20 00:28:29;;;;;;;7.28;4.63;;;15.30;91.10;;;;;;5070342;28;20025;-76
2021/10/20 00:30:54;;;;;;;12.15;6.18;;;15.30;91.20;;;;;;5054910;28;20032;-76
2021/10/20 00:33:20;;;;;;;8.18;5.45;;;15.30;91.10;;;;;;5070423;28;20025;-76
2021/10/20 00:35:46;;;;;;;7.40;4.85;;;15.20;91.10;;;;;;5054826;28;20033;-75
2021/10/20 00:38:11;;;;;;;8.70;4.55;;;15.30;91.30;;;;;;5037059;28;20048;-76
2021/10/20 00:40:37;;;;;;;8.63;4.75;;;15.20;91.20;;;;;;5070554;28;20116;-76
2021/10/20 00:43:02;;;;;;;11.32;5.57;;;15.20;91.20;;;;;;5036798;28;20469;-76
2021/10/20 00:45:28;;;;;;;6.65;4.03;;;15.20;91.10;;;;;;5036883;28;20021;-76
2021/10/20 00:47:54;;;;;;;6.72;4.57;;;15.20;91.10;;;;;;5054920;28;20032;-76
2021/10/20 00:50:19;;;;;;;7.55;4.72;;;15.20;91.10;;;;;;5054557;28;20036;-75
2021/10/20 00:52:45;;;;;;;9.30;4.47;;;15.20;90.90;;;;;;5037010;28;20029;-75
2021/10/20 00:55:12;;;;;;;8.20;4.78;;;15.20;90.70;;;;;;5069893;28;20063;-77
2021/10/20 00:57:39;;;;;;;7.53;4.43;;;15.20;90.90;;;;;;5036203;28;20029;-76
2021/10/20 01:00:08;;;;;;;11.15;4.95;;;15.20;90.80;;;;;;5054056;28;20223;-76
2021/10/20 01:02:35;;;;;;;10.27;4.90;;;15.20;90.70;;;;;;5054485;28;20492;-76
2021/10/20 01:05:02;;;;;;;7.25;4.35;;;15.30;91.00;;;;;;5053948;28;20036;-76
2021/10/20 01:07:28;;;;;;;7.50;3.80;;;15.20;90.60;;;;;;5036291;28;20032;-77
2021/10/20 01:09:54;;;;;;;8.90;4.15;;;15.30;90.40;;;;;;5054404;28;20330;-76
2021/10/20 01:12:20;;;;;;;6.35;4.13;;;15.30;90.40;;;;;;5036282;28;20031;-77
2021/10/20 01:14:46;;;;;;;7.03;3.92;;;15.30;90.40;;;;;;5054185;28;20021;-77
2021/10/20 01:17:12;;;;;;;8.93;4.35;;;15.30;90.30;;;;;;5069597;28;20033;-77
2021/10/20 01:19:39;;;;;;;8.63;4.80;;;15.30;90.30;;;;;;5069572;28;20183;-76
2021/10/20 01:22:05;;;;;;;8.98;4.35;;;15.30;90.20;;;;;;5035849;28;20116;-75
2021/10/20 01:24:32;;;;;;;7.88;4.05;;;15.40;90.40;;;;;;5053969;28;20063;-75
2021/10/20 01:26:57;;;;;;;8.07;3.63;;;15.30;90.00;;;;;;5053958;28;20078;-75
2021/10/20 01:29:23;;;;;;;6.18;3.85;;;15.40;89.60;;;;;;5054103;28;20501;-75
2021/10/20 01:31:51;;;;;;;8.95;3.90;;;15.40;89.40;;;;;;5069433;28;20406;-76
2021/10/20 01:34:16;;;;;;;7.30;4.10;;;15.50;89.20;;;;;;5036013;28;20069;-76
2021/10/20 01:36:43;;;;;;;7.07;3.58;;;15.50;89.30;;;;;;5069209;28;20037;-76
2021/10/20 01:39:10;;;;;;;7.35;4.20;;;15.50;88.60;;;;;;5053365;28;20033;-75
2021/10/20 01:41:37;;;;;;;6.90;4.25;;;15.60;88.80;;;;;;5035870;28;20461;-75
2021/10/20 01:44:06;;;;;;;11.52;4.90;;;15.60;88.70;;;;;;5036271;28;20031;-75
2021/10/20 01:46:32;;;;;;;7.30;4.00;;;15.70;88.40;;;;;;5054557;28;20028;-76
2021/10/20 01:48:57;;;;;;;7.25;3.63;;;15.70;88.10;;;;;;5036626;28;20102;-76
2021/10/20 01:51:23;;;;;;;7.97;4.22;;;15.70;87.70;;;;;;5069525;28;20455;-75
2021/10/20 01:53:49;;;;;;;7.40;4.28;;;15.70;87.60;;;;;;5054749;28;20022;-76
2021/10/20 01:56:15;;;;;;;7.88;4.80;;;15.80;87.50;;;;;;5072770;28;20056;-76
2021/10/20 01:58:43;;;;;;;8.20;3.92;;;15.80;87.50;;;;;;5050273;28;20397;-76
2021/10/20 02:01:09;;;;;;;6.13;3.25;;;15.80;87.10;;;;;;5070610;28;20090;-75
2021/10/20 02:03:36;;;;;;;7.55;4.47;;;15.90;87.20;;;;;;5040161;28;20029;-76
2021/10/20 02:06:04;;;;;;;7.68;4.10;;;15.80;87.10;;;;;;5052816;28;20164;-76
2021/10/20 02:08:31;;;;;;;7.53;4.03;;;15.80;86.70;;;;;;5053350;28;20351;-76
2021/10/20 02:10:57;;;;;;;9.23;3.90;;;15.80;86.70;;;;;;5053143;28;20063;-76
2021/10/20 02:13:22;;;;;;;5.60;3.47;;;15.90;86.70;;;;;;5052812;28;20432;-75
2021/10/20 02:15:48;;;;;;;14.02;4.93;;;15.80;87.00;;;;;;5035132;28;20029;-76
2021/10/20 02:18:14;;;;;;;5.65;3.45;;;15.80;86.90;;;;;;5052469;28;20025;-75
2021/10/20 02:20:39;;;;;;;6.88;3.83;;;15.80;86.90;;;;;;5034877;28;20020;-75
2021/10/20 02:23:05;;;;;;;8.88;3.92;;;15.80;86.70;;;;;;5068151;28;20377;-76
2021/10/20 02:25:31;;;;;;;7.97;3.65;;;15.80;86.80;;;;;;5053021;28;20079;-76
2021/10/20 02:27:56;;;;;;;8.93;4.80;;;15.80;87.00;;;;;;5068281;28;20476;-76
2021/10/20 02:30:22;;;;;;;9.63;4.72;;;15.80;87.00;;;;;;5052688;28;20091;-76
2021/10/20 02:32:47;;;;;;;9.00;3.67;;;15.80;87.00;;;;;;5052787;28;20031;-78
2021/10/20 02:35:14;;;;;;;10.48;3.85;;;15.80;87.20;;;;;;5067938;28;20025;-76
2021/10/20 02:37:39;;;;;;;6.32;3.38;;;15.80;87.20;;;;;;5034709;28;20029;-75
2021/10/20 02:40:07;;;;;;;7.28;3.88;;;15.80;87.10;;;;;;5034626;28;20032;-75
2021/10/20 02:42:33;;;;;;;7.93;4.38;;;15.70;87.20;;;;;;5034998;28;20390;-76
2021/10/20 02:44:59;;;;;;;6.53;3.97;;;15.80;87.30;;;;;;5052751;28;20025;-76
2021/10/20 02:47:24;;;;;;;6.25;3.28;;;15.70;87.40;;;;;;5067918;28;20036;-76
2021/10/20 02:49:50;;;;;;;5.70;3.20;;;15.70;87.30;;;;;;5052712;28;20029;-75
2021/10/20 02:52:18;;;;;;;7.82;3.65;;;15.70;87.30;;;;;;5052570;28;20055;-75
2021/10/20 02:54:44;;;;;;;6.85;3.35;;;15.60;87.50;;;;;;5052883;28;20588;-76
2021/10/20 02:57:09;;;;;;;11.38;4.00;;;15.60;87.20;;;;;;5052424;28;20112;-76
2021/10/20 02:59:35;;;;;;;9.32;4.25;;;15.60;87.60;;;;;;5052890;28;20040;-75
2021/10/20 03:02:01;;;;;;;8.40;4.40;;;15.60;87.70;;;;;;5053154;28;20053;-75
2021/10/20 03:04:26;;;;;;;7.50;3.83;;;15.60;87.70;;;;;;5052847;28;20393;-75
2021/10/20 03:06:52;;;;;;;7.85;4.60;;;15.60;87.60;;;;;;5034714;28;20029;-76
2021/10/20 03:09:18;;;;;;;6.35;4.03;;;15.60;87.70;;;;;;5052102;28;20145;-76
2021/10/20 03:11:43;;;;;;;11.15;3.70;;;15.60;87.70;;;;;;5068050;28;20021;-75
2021/10/20 03:14:09;;;;;;;6.47;3.90;;;15.60;87.70;;;;;;5052074;28;20535;-75
2021/10/20 03:16:35;;;;;;;8.25;3.88;;;15.60;87.80;;;;;;5055277;28;20029;-76
2021/10/20 03:19:01;;;;;;;9.77;5.15;;;15.60;87.90;;;;;;5056761;28;20095;-75
2021/10/20 03:21:26;;;;;;;7.47;4.22;;;15.60;88.10;;;;;;5056430;28;20024;-75
2021/10/20 03:23:52;;;;;;;9.00;4.15;;;15.60;87.70;;;;;;5057122;28;20058;-76
2021/10/20 03:26:17;;;;;;;6.93;3.72;;;15.60;88.10;;;;;;5071583;28;20041;-76
2021/10/20 03:28:43;;;;;;;8.52;4.85;;;15.50;87.60;;;;;;5071696;28;20024;-76
2021/10/20 03:31:09;;;;;;;8.57;4.60;;;15.50;87.80;;;;;;5055848;28;20508;-75
2021/10/20 03:33:34;;;;;;;9.40;5.32;;;15.50;88.20;;;;;;5056735;28;20025;-75
2021/10/20 03:36:00;;;;;;;10.88;4.65;;;15.50;88.40;;;;;;5072455;28;20033;-75
2021/10/20 03:38:25;;;;;;;7.45;4.03;;;15.50;88.10;;;;;;5072239;28;20083;-75
2021/10/20 03:40:51;;;;;;;10.98;5.10;;;15.50;88.20;;;;;;5056570;28;20074;-76
2021/10/20 03:43:16;;;;;;;7.88;5.13;;;15.50;88.50;;;;;;5039232;28;20043;-75
2021/10/20 03:45:42;;;;;;;6.93;4.35;;;15.60;88.10;;;;;;5059965;28;20025;-76
2021/10/20 03:48:08;;;;;;;7.18;4.10;;;15.50;88.30;;;;;;5073203;28;20021;-75
2021/10/20 03:50:33;;;;;;;7.35;4.82;;;15.50;88.30;;;;;;5084520;28;20059;-76
2021/10/20 03:52:59;;;;;;;7.75;5.10;;;15.50;88.40;;;;;;5059429;28;20025;-76
2021/10/20 03:55:24;;;;;;;10.55;6.07;;;15.50;88.50;;;;;;5055580;28;20029;-75
2021/10/20 03:57:50;;;;;;;8.43;4.60;;;15.50;88.50;;;;;;5070795;28;20427;-76
2021/10/20 04:00:17;;;;;;;9.20;5.78;;;15.50;88.20;;;;;;5055398;28;20524;-76
2021/10/20 04:02:44;;;;;;;8.52;5.10;;;15.60;88.10;;;;;;5055796;28;20051;-76
2021/10/20 04:05:20;;;;;;;7.78;5.03;;;15.60;87.80;;;;;;5055502;28;20037;-75
2021/10/20 04:07:47;;;;;;;11.65;5.72;;;15.60;87.80;;;;;;5056073;28;20032;-75
2021/10/20 04:10:16;;;;;;;10.73;5.13;;;15.60;88.00;;;;;;5055142;28;20109;-76
2021/10/20 04:12:43;;;;;;;8.68;4.78;;;15.60;87.60;;;;;;5055354;28;20108;-76
2021/10/20 04:15:09;;;;;;;7.78;5.07;;;15.60;87.40;;;;;;5055264;28;20025;-75
2021/10/20 04:17:35;;;;;;;8.88;4.55;;;15.60;87.70;;;;;;5036985;28;20025;-76
2021/10/20 04:20:00;;;;;;;10.20;5.03;;;15.60;87.50;;;;;;5070403;28;20066;-76
2021/10/20 04:22:26;;;;;;;8.55;4.70;;;15.60;87.60;;;;;;5054522;28;20377;-76
2021/10/20 04:24:52;;;;;;;9.18;5.55;;;15.60;87.30;;;;;;5070569;28;20028;-77
2021/10/20 04:27:17;;;;;;;11.27;4.90;;;15.60;87.80;;;;;;5069767;28;20492;-76
2021/10/20 04:29:43;;;;;;;10.20;5.90;;;15.60;87.10;;;;;;5054804;28;20439;-75
2021/10/20 04:32:09;;;;;;;9.60;4.90;;;15.60;87.80;;;;;;5055025;28;20029;-75
2021/10/20 04:34:35;;;;;;;14.80;4.78;;;15.60;87.80;;;;;;5037111;28;20025;-75
2021/10/20 04:37:00;;;;;;;7.43;3.80;;;15.60;87.90;;;;;;5055013;28;20378;-75
2021/10/20 04:39:26;;;;;;;6.25;3.67;;;15.60;87.70;;;;;;5055011;28;20033;-76
2021/10/20 04:41:51;;;;;;;11.90;5.72;;;15.70;88.30;;;;;;5036917;28;20017;-76
2021/10/20 04:44:17;;;;;;;10.20;5.45;;;15.60;88.60;;;;;;5054722;28;20500;-76
2021/10/20 04:46:42;;;;;;;6.53;4.47;;;15.60;88.80;;;;;;5054710;28;20059;-76
2021/10/20 04:49:08;;;;;;;11.23;5.30;;;15.60;87.80;;;;;;5038020;28;20017;-75
2021/10/20 04:51:33;;;;;;;7.55;4.68;;;15.60;88.20;;;;;;5054156;28;20043;-76
2021/10/20 04:53:59;;;;;;;10.30;5.00;;;15.70;87.80;;;;;;5036272;28;20056;-76
2021/10/20 04:56:25;;;;;;;10.23;4.75;;;15.70;88.50;;;;;;5054383;28;20061;-77
2021/10/20 04:58:50;;;;;;;10.00;5.60;;;15.70;88.00;;;;;;5036908;28;20075;-76
2021/10/20 05:01:16;;;;;;;10.90;5.45;;;15.70;88.70;;;;;;5036298;28;20021;-75
2021/10/20 05:03:41;;;;;;;7.28;5.20;;;15.70;88.50;;;;;;5054280;28;20028;-76
2021/10/20 05:06:07;;;;;;;7.30;4.70;;;15.70;88.10;;;;;;5036439;28;20092;-75
2021/10/20 05:08:33;;;;;;;9.18;5.70;;;15.70;87.80;;;;;;5054271;28;20545;-76
2021/10/20 05:10:58;;;;;;;8.98;5.95;;;15.80;87.20;;;;;;5036266;28;20025;-76
2021/10/20 05:13:24;;;;;;;8.45;5.20;;;15.80;86.80;;;;;;5036310;28;20060;-77
2021/10/20 05:15:50;;;;;;;12.02;6.22;;;15.80;86.80;;;;;;5036503;28;20021;-76
2021/10/20 05:18:16;;;;;;;11.75;6.70;;;15.80;87.30;;;;;;5054078;28;20028;-77
2021/10/20 05:20:41;;;;;;;9.43;6.28;;;15.80;87.30;;;;;;5054189;28;20484;-75
2021/10/20 05:23:10;;;;;;;10.35;6.75;;;15.80;86.70;;;;;;5036393;28;20064;-76
2021/10/20 05:25:37;;;;;;;9.68;5.53;;;15.90;87.30;;;;;;5052551;28;20409;-76
2021/10/20 05:28:03;;;;;;;11.07;5.40;;;15.80;87.00;;;;;;5054176;28;20028;-75
2021/10/20 05:30:29;;;;;;;10.10;5.78;;;15.80;87.20;;;;;;5054276;28;20021;-76
2021/10/20 05:32:54;;;;;;;9.20;5.95;;;15.80;87.20;;;;;;5054564;28;20113;-76
2021/10/20 05:35:20;;;;;;;9.98;6.32;;;15.80;87.50;;;;;;5059624;28;20020;-77
2021/10/20 05:37:48;;;;;;;10.13;5.80;;;15.80;87.70;;;;;;5055720;28;20067;-76
2021/10/20 05:40:14;;;;;;;6.78;4.38;;;15.80;87.60;;;;;;5060700;28;20049;-77
2021/10/20 05:42:39;;;;;;;6.68;4.05;;;15.70;87.60;;;;;;5054788;28;20032;-75
2021/10/20 05:45:05;;;;;;;9.95;4.97;;;15.70;87.20;;;;;;5055516;28;20025;-75
2021/10/20 05:47:31;;;;;;;8.35;5.05;;;15.70;87.90;;;;;;5035872;28;20029;-76
2021/10/20 05:49:59;;;;;;;8.20;5.45;;;15.70;87.80;;;;;;5036136;28;20025;-75
2021/10/20 05:52:25;;;;;;;8.55;5.25;;;15.70;88.00;;;;;;5053170;28;20023;-75
2021/10/20 05:54:50;;;;;;;11.93;6.13;;;15.60;88.50;;;;;;5053764;28;20028;-75
2021/10/20 05:57:16;;;;;;;14.23;5.38;;;15.60;88.20;;;;;;5035480;28;20116;-75
2021/10/20 05:59:41;;;;;;;10.38;6.07;;;15.60;88.40;;;;;;5035665;28;20033;-76
2021/10/20 06:02:11;;;;;;;9.73;6.05;;;15.60;88.20;;;;;;5035692;28;20048;-76
2021/10/20 06:04:39;;;;;;;10.03;5.80;;;15.60;87.70;;;;;;5053437;28;20082;-76
2021/10/20 06:07:04;;;;;;;14.32;5.05;;;15.70;87.90;;;;;;5053463;28;20025;-75
2021/10/20 06:09:30;;;;;;;8.98;6.03;;;15.70;87.30;;;;;;5052993;28;20377;-75
2021/10/20 06:11:56;;;;;;;9.02;5.55;;;15.70;87.50;;;;;;5052954;28;20032;-76
2021/10/20 06:14:21;;;;;;;12.07;5.88;;;15.70;87.10;;;;;;5052833;28;20021;-76
2021/10/20 06:16:49;;;;;;;6.70;4.13;;;15.80;86.90;;;;;;5053345;28;20037;-76
2021/10/20 06:19:14;;;;;;;9.95;4.90;;;15.80;86.20;;;;;;5035771;28;20021;-75
2021/10/20 06:21:40;;;;;;;8.75;4.88;;;15.80;86.70;;;;;;5034777;28;20104;-75
2021/10/20 06:24:06;;;;;;;9.18;5.20;;;15.80;86.70;;;;;;5052946;28;20057;-76
2021/10/20 06:26:32;;;;;;;9.27;5.82;;;15.80;86.50;;;;;;5053268;28;20028;-75
2021/10/20 06:28:58;;;;;;;9.02;5.15;;;15.80;86.70;;;;;;5035003;28;20093;-76
2021/10/20 06:31:24;;;;;;;9.52;5.45;;;15.90;86.60;;;;;;5034875;28;20115;-75
2021/10/20 06:33:49;;;;;;;10.38;5.70;;;15.80;86.60;;;;;;5035046;28;20055;-76
2021/10/20 06:36:29;;;;;;;8.57;4.88;;;15.90;86.80;;;;;;5034883;28;20060;-74
2021/10/20 06:38:55;;;;;;;9.82;6.22;;;15.80;86.30;;;;;;5034959;28;20032;-75
2021/10/20 06:41:21;;;;;;;7.45;5.82;;;15.90;87.10;;;;;;5052772;28;20067;-76
2021/10/20 06:43:47;;;;;;;6.13;4.00;;;15.90;86.90;;;;;;5052468;28;20025;-76
2021/10/20 06:46:12;;;;;;;8.05;5.07;;;15.90;85.80;;;;;;5052636;28;20090;-76
2021/10/20 06:48:38;;;;;;;9.05;5.10;;;15.90;86.80;;;;;;5052128;28;20355;-77
2021/10/20 06:51:07;;;;;;;8.45;5.60;;;15.90;86.20;;;;;;5052715;28;20024;-77
2021/10/20 06:53:33;;;;;;;8.23;5.00;;;15.90;86.80;;;;;;5052641;28;20500;-76
2021/10/20 06:56:01;;;;;;;12.38;6.40;;;15.90;86.70;;;;;;5035257;28;20029;-77
2021/10/20 06:58:26;;;;;;;12.57;5.72;;;16.00;86.70;;;;;;5053538;28;20408;-76
2021/10/20 07:00:52;;;;;;;9.13;5.80;;;15.90;86.80;;;;;;5053653;28;20503;-76
2021/10/20 07:03:18;;;;;;;10.40;5.57;;;16.00;87.00;;;;;;5053559;28;20056;-76
2021/10/20 07:05:43;;;;;;;10.02;5.95;;;15.90;87.00;;;;;;5052946;28;20083;-77
2021/10/20 07:08:09;;;;;;;9.52;5.90;;;16.00;87.80;;;;;;5035181;28;20031;-75
2021/10/20 07:10:36;;;;;;;6.97;4.30;;;16.00;87.60;;;;;;5034628;28;20021;-76
2021/10/20 07:13:02;;;;;;;8.75;5.47;;;15.90;86.90;;;;;;5035233;28;20089;-76
2021/10/20 07:15:28;;;;;;;8.75;6.43;;;15.90;87.20;;;;;;5052774;28;20430;-76
2021/10/20 07:17:53;;;;;;;8.45;4.80;;;16.00;87.60;;;;;;5034620;28;20116;-76
2021/10/20 07:20:19;;;;;;;9.23;6.68;;;16.00;87.00;;;;;;5052895;28;20416;-76
2021/10/20 07:22:45;;;;;;;8.05;5.32;;;16.00;88.30;;;;;;5036233;28;20056;-76
2021/10/20 07:25:13;;;;;;;8.63;5.07;;;16.00;87.60;;;;;;5068244;28;20025;-76
2021/10/20 07:27:39;;;;;;;8.75;5.95;;;16.00;87.80;;;;;;5048829;28;20033;-76
2021/10/20 07:30:07;;;;;;;7.53;4.00;;;16.10;88.20;;;;;;5056422;28;20497;-76
2021/10/20 07:32:33;;;;;;;11.23;5.80;;;16.10;86.90;;;;;;5034236;28;20481;-76
2021/10/20 07:34:58;;;;;;;8.88;5.95;;;16.10;87.50;;;;;;5052248;28;20032;-76
2021/10/20 07:37:24;;;;;;;11.48;5.95;;;16.20;87.20;;;;;;5052024;28;20033;-76
2021/10/20 07:39:50;;;;;;;9.40;5.90;;;16.20;87.20;;;;;;5052105;28;20021;-75
2021/10/20 07:42:15;;;;;;;15.15;5.80;;;16.20;88.20;;;;;;5053687;28;20066;-76
2021/10/20 07:44:42;;;;;;;9.10;4.53;;;16.20;88.20;;;;;;5034958;28;20542;-75
2021/10/20 07:47:08;;;;;;;10.00;5.75;;;16.20;86.80;;;;;;5034309;28;20115;-76
2021/10/20 07:49:34;;;;;;;12.27;5.75;;;16.20;87.40;;;;;;5033735;28;20120;-74
2021/10/20 07:51:59;;;;;;;7.70;4.65;;;16.20;88.20;;;;;;5052045;28;20021;-76
2021/10/20 07:54:25;;;;;;;12.13;5.03;;;16.10;88.40;;;;;;5052015;28;20025;-74
2021/10/20 07:56:54;;;;;;;8.00;6.05;;;16.20;87.90;;;;;;5034126;28;20025;-75
2021/10/20 07:59:21;;;;;;;9.15;6.32;;;16.20;88.50;;;;;;5034107;28;20031;-75
2021/10/20 08:01:47;;;;;;;8.35;4.53;;;16.20;88.50;;;;;;5050700;28;20068;-75
2021/10/20 08:04:13;;;;;;;9.45;6.30;;;16.20;88.00;;;;;;5055339;28;20075;-75
2021/10/20 08:06:39;;;;;;;8.10;5.80;;;16.10;89.40;;;;;;5055823;28;20032;-76
2021/10/20 08:09:05;;;;;;;10.18;5.32;;;16.10;89.40;;;;;;5054298;28;20025;-75
2021/10/20 08:11:30;;;;;;;10.13;5.88;;;16.10;89.40;;;;;;5037438;28;20519;-74
2021/10/20 08:13:56;;;;;;;10.27;6.07;;;16.10;89.90;;;;;;5037694;28;20477;-74
2021/10/20 08:16:22;;;;;;;9.65;5.60;;;16.10;89.60;;;;;;5055683;28;20036;-74
2021/10/20 08:18:48;;;;;;;13.05;6.70;;;16.10;90.40;;;;;;5055681;28;20056;-75
2021/10/20 08:21:13;;;;;;;8.38;6.07;;;16.10;90.60;;;;;;5037904;28;20025;-74
2021/10/20 08:23:41;;;;;;;11.73;7.18;;;16.10;90.00;;;;;;5055646;28;20025;-73
2021/10/20 08:26:08;;;;;;;11.13;7.25;;;16.10;90.40;;;;;;5038082;28;20021;-74
2021/10/20 08:28:34;;;;;;;11.55;6.95;;;16.10;90.60;;;;;;5056116;28;20049;-72
2021/10/20 08:30:59;;;;;;;11.48;6.65;;;16.10;90.80;;;;;;5037455;28;20056;-74
2021/10/20 08:33:25;;;;;;;8.88;5.70;;;16.00;90.50;;;;;;5037216;28;20032;-74
2021/10/20 08:35:51;;;;;;;11.00;6.85;;;16.10;90.10;;;;;;5054585;28;20062;-74
2021/10/20 08:38:17;;;;;;;11.35;8.55;;;16.10;90.70;;;;;;5054771;28;20025;-75
2021/10/20 08:40:46;;;;;;;12.55;6.60;;;16.20;91.10;;;;;;5037227;28;20500;-76
2021/10/20 08:43:13;;;;;;;11.95;8.20;;;16.20;90.70;;;;;;5054934;28;20025;-75
2021/10/20 08:45:39;;;;;;;11.05;6.68;;;16.40;91.00;;;;;;5054530;28;20033;-76
2021/10/20 08:48:05;;;;;;;9.48;7.18;;;16.60;89.50;;;;;;5054662;28;20464;-75
2021/10/20 08:50:34;;;;;;;13.40;7.72;;;16.60;89.30;;;;;;5053243;28;20377;-76
2021/10/20 08:53:00;;;;;;;14.10;6.93;;;16.60;89.80;;;;;;5053651;28;20531;-76
2021/10/20 08:55:26;;;;;;;10.80;7.18;;;16.70;89.50;;;;;;5053355;28;20104;-76
2021/10/20 08:57:54;;;;;;;11.63;7.30;;;17.00;89.70;;;;;;5054980;28;20060;-76
2021/10/20 09:00:21;;;;;;;11.77;6.38;;;17.40;87.60;;;;;;5054620;28;20052;-76
2021/10/20 09:02:47;;;;;;;15.65;7.75;;;17.50;85.80;;;;;;5054386;28;20033;-75
2021/10/20 09:05:24;;;;;;;17.80;7.15;;;17.50;86.80;;;;;;5052712;28;20033;-75
2021/10/20 09:07:53;;;;;;;9.48;7.28;;;17.50;86.10;;;;;;5053083;28;20031;-76
2021/10/20 09:10:19;;;;;;;10.35;6.50;;;17.50;87.00;;;;;;5054649;28;20028;-76
2021/10/20 09:12:44;;;;;;;9.68;7.10;;;17.50;86.30;;;;;;5068674;28;20021;-77
2021/10/20 09:15:19;;;;;;;10.02;6.88;;;17.40;86.10;;;;;;5069444;28;20040;-76
2021/10/20 09:17:49;;;;;;;11.70;8.02;;;17.40;86.30;;;;;;5042609;28;20105;-76
2021/10/20 09:20:37;;;;;;;11.50;8.27;;;17.30;87.30;;;;;;5036065;28;20051;-75
2021/10/20 09:23:07;;;;;;;11.07;7.25;;;17.20;88.00;;;;;;5054177;28;20013;-76
2021/10/20 09:25:58;;;;;;;9.02;5.13;;;17.10;88.00;;;;;;5052712;28;20151;-76
2021/10/20 09:28:31;;;;;;;11.55;6.43;;;17.00;88.30;;;;;;5036356;28;20481;-78
2021/10/20 09:31:01;;;;;;;17.30;7.75;;;17.00;88.40;;;;;;5052855;28;20048;-77
2021/10/20 09:33:27;;;;;;;10.23;6.85;;;17.00;88.70;;;;;;5054091;28;20052;-76
2021/10/20 09:35:52;;;;;;;13.02;6.32;;;17.00;88.80;;;;;;5035766;28;20024;-76
2021/10/20 09:38:20;;;;;;;10.98;7.43;;;17.00;88.80;;;;;;5036194;28;20028;-76
2021/10/20 09:40:48;;;;;;;11.65;7.15;;;17.00;89.10;;;;;;5053282;28;20021;-79
2021/10/20 09:43:18;;;;;;;10.23;7.50;;;17.00;89.20;;;;;;5056056;28;20059;-79
2021/10/20 09:45:45;;;;;;;11.27;7.15;;;17.00;89.30;;;;;;5053572;28;20036;-78
2021/10/20 09:48:16;;;;;;;11.52;7.57;;;17.10;89.40;;;;;;5054806;28;20485;-76
2021/10/20 09:51:00;;;;;;;14.73;8.05;;;17.10;89.50;;;;;;5036336;28;20096;-77
2021/10/20 09:53:50;;;;;;;10.93;8.35;;;17.10;89.50;;;;;;5054442;28;20029;-78
2021/10/20 09:56:34;;;;;;;10.43;8.32;;;17.10;89.60;;;;;;5036642;28;20020;-77
2021/10/20 09:59:00;;;;;;;10.40;7.20;;;17.10;89.90;;;;;;5054903;28;20055;-77
2021/10/20 10:01:27;;;;;;;14.05;8.73;;;17.10;89.90;;;;;;5036651;28;20025;-79
2021/10/20 10:04:02;;;;;;;11.57;7.03;;;17.10;90.00;;;;;;5054034;28;20133;-77
2021/10/20 10:06:29;;;;;;;11.50;7.32;;;17.20;90.00;;;;;;5053630;28;20049;-79
2021/10/20 10:08:54;;;;;;;13.15;8.20;;;17.30;90.00;;;;;;5051806;28;20028;-80
2021/10/20 10:11:21;;;;;;;10.93;7.00;;;17.50;89.30;;;;;;5035564;28;20029;-81
2021/10/20 10:13:51;;;;;;;12.57;8.52;;;17.70;88.60;;;;;;5035345;28;20057;-80
2021/10/20 10:16:24;;;;;;;9.07;6.07;;;17.80;88.10;;;;;;5035640;28;20125;-80
2021/10/20 10:18:54;;;;;;;12.43;6.75;;;17.90;86.90;;;;;;5053396;28;20115;-81
2021/10/20 10:21:42;;;;;;;11.70;8.10;;;17.90;87.10;;;;;;5035310;28;20065;-78
2021/10/20 10:24:16;;;;;;;14.70;7.55;;;17.80;87.60;;;;;;5052752;28;20020;-80
2021/10/20 10:26:58;;;;;;;11.45;7.97;;;17.80;88.20;;;;;;5051393;28;20094;-79
2021/10/20 10:29:24;;;;;;;11.75;7.13;;;17.70;88.30;;;;;;5051897;28;20103;-80
2021/10/20 10:31:51;;;;;;;12.05;7.13;;;17.60;88.50;;;;;;5035095;28;20112;-81
2021/10/20 10:34:26;;;;;;;11.82;7.07;;;17.60;88.70;;;;;;5052945;28;20051;-80
2021/10/20 10:36:58;;;;;;;11.70;6.47;;;17.50;88.90;;;;;;5052593;28;20059;-80
2021/10/20 10:39:24;;;;;;;13.18;8.80;;;17.40;89.00;;;;;;5053110;28;20029;-80
2021/10/20 10:41:49;;;;;;;10.93;6.50;;;17.40;89.30;;;;;;5035027;28;20025;-80
2021/10/20 10:44:22;;;;;;;10.93;7.07;;;17.40;89.30;;;;;;5035115;28;20021;-79
2021/10/20 10:47:20;;;;;;;7.80;6.05;;;17.40;89.60;;;;;;5051596;28;20479;-78
2021/10/20 10:49:52;;;;;;;13.63;7.50;;;17.40;89.30;;;;;;5053592;28;20025;-78
2021/10/20 10:52:34;;;;;;;12.98;7.55;;;17.40;89.40;;;;;;5053670;28;20072;-78
2021/10/20 10:55:22;;;;;;;8.90;6.40;;;17.40;89.50;;;;;;5052168;28;20017;-78
2021/10/20 10:58:19;;;;;;;8.27;5.55;;;17.40;89.30;;;;;;5053048;28;20044;-80
2021/10/20 11:00:46;;;;;;;9.68;5.93;;;17.40;89.10;;;;;;5065258;28;20002;-78
2021/10/20 11:03:15;;;;;;;11.35;7.15;;;17.40;89.30;;;;;;5073807;28;20028;-78
2021/10/20 11:05:48;;;;;;;11.77;6.55;;;17.40;89.40;;;;;;5064258;28;20089;-79
2021/10/20 11:08:15;;;;;;;10.93;7.57;;;17.40;89.10;;;;;;5035519;28;20025;-76
2021/10/20 11:10:42;;;;;;;10.55;7.28;;;17.40;89.20;;;;;;5053375;28;20477;-76
2021/10/20 11:13:09;;;;;;;13.30;7.22;;;17.40;89.40;;;;;;5052591;28;20350;-76
2021/10/20 11:15:36;;;;;;;10.05;5.43;;;17.40;89.30;;;;;;5053322;28;20028;-76
2021/10/20 11:18:02;;;;;;;8.55;6.38;;;17.40;89.10;;;;;;5051361;28;20039;-76
2021/10/20 11:20:31;;;;;;;13.63;7.45;;;17.40;89.40;;;;;;5051211;28;20021;-76
2021/10/20 11:23:03;;;;;;;8.70;6.38;;;17.50;89.20;;;;;;5052338;28;20140;-72
2021/10/20 11:25:29;;;;;;;9.07;6.47;;;17.40;89.10;;;;;;5052612;28;20032;-77
2021/10/20 11:27:57;;;;;;;11.05;6.50;;;17.50;88.80;;;;;;5034554;28;20028;-73
2021/10/20 11:30:26;;;;;;;11.30;6.28;;;17.40;88.80;;;;;;5050916;28;20049;-75
2021/10/20 11:32:52;;;;;;;11.43;6.07;;;17.40;88.90;;;;;;5052069;28;20105;-76
2021/10/20 11:35:29;;;;;;;9.88;6.63;;;17.50;88.90;;;;;;5052276;28;20555;-76
2021/10/20 11:38:06;;;;;;;9.95;5.93;;;17.50;88.70;;;;;;5053269;28;20033;-75
2021/10/20 11:40:40;;;;;;;9.63;5.57;;;17.50;89.00;;;;;;5056467;28;20479;-76
2021/10/20 11:43:14;;;;;;;9.27;6.22;;;17.50;88.90;;;;;;5056131;28;20067;-75
2021/10/20 11:45:39;;;;;;;10.32;5.55;;;17.50;88.80;;;;;;5054799;28;20071;-74
2021/10/20 11:48:05;;;;;;;9.32;6.25;;;17.60;88.80;;;;;;5038192;28;20024;-74
2021/10/20 11:50:32;;;;;;;9.63;5.63;;;17.60;88.90;;;;;;5037944;28;20125;-74
2021/10/20 11:53:04;;;;;;;9.45;6.30;;;17.60;88.60;;;;;;5054504;28;20092;-75
2021/10/20 11:55:30;;;;;;;8.00;6.05;;;17.60;89.30;;;;;;5056121;28;20029;-75
2021/10/20 11:57:56;;;;;;;8.20;5.38;;;17.60;88.70;;;;;;5055182;28;20512;-75
2021/10/20 12:00:23;;;;;;;8.43;5.30;;;17.60;88.60;;;;;;5054284;28;20017;-75
2021/10/20 12:02:49;;;;;;;8.15;3.80;;;17.70;88.50;;;;;;5055408;28;20025;-76
2021/10/20 12:05:15;;;;;;;11.25;5.82;;;17.60;88.50;;;;;;5053924;28;20139;-76
2021/10/20 12:07:46;;;;;;;10.48;6.20;;;17.60;88.50;;;;;;5037710;28;20025;-76
2021/10/20 12:10:12;;;;;;;9.20;6.32;;;17.60;88.60;;;;;;5055433;28;20143;-76
2021/10/20 12:12:38;;;;;;;10.85;6.47;;;17.60;88.90;;;;;;5055188;28;20381;-75
2021/10/20 12:15:04;;;;;;;9.50;6.07;;;17.60;89.10;;;;;;5055161;28;20021;-76
2021/10/20 12:17:30;;;;;;;8.05;5.72;;;17.50;89.20;;;;;;5054011;28;20041;-75
2021/10/20 12:20:00;;;;;;;9.23;6.50;;;17.50;89.10;;;;;;5037219;28;20362;-76
2021/10/20 12:22:28;;;;;;;7.38;5.53;;;17.50;89.10;;;;;;5055308;28;20029;-75
2021/10/20 12:24:55;;;;;;;10.98;5.70;;;17.50;89.30;;;;;;5055597;28;20025;-75
2021/10/20 12:27:23;;;;;;;11.45;6.50;;;17.50;89.30;;;;;;5054043;28;20108;-75
2021/10/20 12:30:03;;;;;;;10.82;7.00;;;17.50;89.50;;;;;;5055247;28;20031;-76
2021/10/20 12:32:32;;;;;;;14.43;6.32;;;17.50;89.90;;;;;;5037137;28;20035;-77
2021/10/20 12:35:00;;;;;;;10.50;6.32;;;17.50;89.90;;;;;;5055088;28;20021;-76
2021/10/20 12:37:31;;;;;;;11.38;7.05;;;17.50;89.90;;;;;;5053888;28;20116;-75
2021/10/20 12:39:59;;;;;;;9.27;6.40;;;17.60;89.90;;;;;;5053964;28;20021;-76
2021/10/20 12:42:25;;;;;;;11.80;7.10;;;17.60;89.70;;;;;;5053629;28;20033;-75
2021/10/20 12:44:58;;;;;;;12.23;7.68;;;17.60;89.70;;;;;;5036947;28;20017;-75